createdAt,value
2023-06-24T00:00:08.219Z,4.07
2023-06-24T00:02:39.748Z,3.17
2023-06-24T00:05:10.361Z,3.10
2023-06-24T00:07:45.138Z,3.25
2023-06-24T00:10:14.491Z,2.90
2023-06-24T00:12:43.380Z,3.15
2023-06-24T00:15:12.147Z,3.00
2023-06-24T00:17:43.175Z,2.65
2023-06-24T00:20:15.458Z,3.13
2023-06-24T00:22:46.002Z,3.50
2023-06-24T00:25:14.572Z,3.30
2023-06-24T00:27:43.430Z,3.17
2023-06-24T00:30:12.823Z,2.92
2023-06-24T00:32:42.797Z,2.90
2023-06-24T00:35:13.274Z,2.78
2023-06-24T00:37:43.072Z,3.13
2023-06-24T00:40:16.111Z,2.63
2023-06-24T00:42:45.221Z,3.10
2023-06-24T00:45:13.854Z,3.10
2023-06-24T00:47:43.702Z,2.90
2023-06-24T00:50:13.827Z,2.88
2023-06-24T00:52:44.065Z,2.83
2023-06-24T00:55:14.286Z,3.33
2023-06-24T00:57:43.628Z,3.40
2023-06-24T01:00:15.785Z,2.75
2023-06-24T01:02:45.877Z,3.15
2023-06-24T01:05:15.428Z,2.40
2023-06-24T01:07:45.157Z,3.00
2023-06-24T01:12:45.301Z,2.75
2023-06-24T01:15:14.302Z,3.15
2023-06-24T01:17:52.175Z,2.78
2023-06-24T01:20:26.269Z,2.95
2023-06-24T01:23:30.121Z,2.80
2023-06-24T01:26:15.552Z,2.80
2023-06-24T01:29:07.973Z,2.92
2023-06-24T01:31:43.212Z,2.75
2023-06-24T01:34:20.306Z,2.70
2023-06-24T01:36:55.855Z,3.42
2023-06-24T01:39:26.423Z,2.83
2023-06-24T01:42:01.199Z,2.72
2023-06-24T01:44:31.555Z,2.97
2023-06-24T01:47:03.299Z,2.70
2023-06-24T01:52:05.636Z,3.20
2023-06-24T01:59:37.895Z,2.67
2023-06-24T02:02:09.293Z,2.92
2023-06-24T02:04:38.418Z,2.78
2023-06-24T02:07:08.012Z,2.70
2023-06-24T02:09:41.562Z,2.60
2023-06-24T02:12:11.748Z,2.65
2023-06-24T02:14:41.651Z,2.78
2023-06-24T02:17:13.499Z,2.80
2023-06-24T02:19:42.733Z,2.88
2023-06-24T02:22:11.688Z,3.05
2023-06-24T02:24:40.888Z,2.88
2023-06-24T02:27:10.383Z,2.78
2023-06-24T02:29:39.558Z,2.90
2023-06-24T02:32:08.872Z,2.92
2023-06-24T02:34:38.724Z,2.63
2023-06-24T02:37:07.575Z,2.92
2023-06-24T02:39:36.444Z,2.50
2023-06-24T02:42:05.379Z,2.60
2023-06-24T02:44:34.650Z,2.83
2023-06-24T02:47:03.420Z,2.92
2023-06-24T02:49:33.262Z,3.05
2023-06-24T02:52:03.061Z,3.20
2023-06-24T02:54:32.766Z,3.28
2023-06-24T02:57:21.411Z,2.92
2023-06-24T03:00:14.450Z,3.13
2023-06-24T03:03:07.757Z,3.42
2023-06-24T03:05:38.586Z,2.88
2023-06-24T03:08:10.231Z,3.45
2023-06-24T03:10:39.391Z,3.17
2023-06-24T03:13:12.076Z,3.00
2023-06-24T03:15:46.356Z,3.42
2023-06-24T03:18:15.547Z,3.05
2023-06-24T03:20:44.916Z,2.97
2023-06-24T03:23:19.365Z,2.75
2023-06-24T03:25:47.700Z,3.25
2023-06-24T03:28:17.598Z,3.13
2023-06-24T03:30:55.028Z,3.50
2023-06-24T03:33:23.368Z,3.38
2023-06-24T03:35:51.941Z,3.42
2023-06-24T03:38:26.293Z,3.15
2023-06-24T03:40:54.622Z,2.95
2023-06-24T03:43:23.124Z,3.05
2023-06-24T03:45:52.117Z,3.15
2023-06-24T03:48:21.844Z,3.17
2023-06-24T03:50:50.195Z,3.03
2023-06-24T03:53:18.497Z,2.75
2023-06-24T03:55:48.296Z,2.88
2023-06-24T03:58:18.048Z,2.90
2023-06-24T04:00:47.323Z,2.75
2023-06-24T04:03:16.086Z,3.28
2023-06-24T04:05:44.589Z,2.92
2023-06-24T04:08:12.945Z,2.90
2023-06-24T04:10:44.428Z,3.13
2023-06-24T04:13:15.528Z,3.22
2023-06-24T04:15:44.040Z,2.95
2023-06-24T04:18:12.976Z,3.22
2023-06-24T04:20:41.301Z,3.25
2023-06-24T04:23:11.864Z,3.10
2023-06-24T04:25:40.177Z,2.75
2023-06-24T04:28:08.713Z,2.95
2023-06-24T04:30:39.595Z,3.20
2023-06-24T04:33:09.762Z,3.05
2023-06-24T04:35:38.514Z,3.10
2023-06-24T04:38:07.422Z,3.40
2023-06-24T04:40:35.826Z,3.17
2023-06-24T04:43:04.156Z,3.42
2023-06-24T04:45:32.624Z,2.97
2023-06-24T04:48:02.392Z,3.05
2023-06-24T04:50:31.047Z,3.38
2023-06-24T04:52:59.437Z,3.28
2023-06-24T04:55:27.745Z,3.30
2023-06-24T04:57:56.001Z,3.25
2023-06-24T05:00:25.416Z,3.53
2023-06-24T05:02:54.296Z,3.25
2023-06-24T05:05:24.419Z,3.42
2023-06-24T05:07:52.837Z,3.30
2023-06-24T05:10:21.178Z,2.90
2023-06-24T05:12:49.442Z,3.22
2023-06-24T05:15:18.059Z,3.25
2023-06-24T05:17:46.479Z,3.38
2023-06-24T05:20:14.835Z,3.17
2023-06-24T05:22:44.725Z,3.22
2023-06-24T05:25:13.114Z,3.50
2023-06-24T05:27:41.401Z,3.30
2023-06-24T05:30:10.692Z,3.30
2023-06-24T05:32:38.973Z,3.00
2023-06-24T05:35:08.421Z,3.35
2023-06-24T05:37:36.846Z,3.08
2023-06-24T05:40:08.643Z,2.92
2023-06-24T05:42:36.994Z,3.33
2023-06-24T05:45:05.949Z,3.20
2023-06-24T05:47:34.249Z,2.85
2023-06-24T05:50:02.784Z,3.28
2023-06-24T05:52:31.116Z,3.40
2023-06-24T05:54:59.404Z,3.33
2023-06-24T05:57:29.182Z,3.35
2023-06-24T05:59:57.466Z,3.10
2023-06-24T06:02:25.869Z,3.22
2023-06-24T06:04:54.165Z,3.22
2023-06-24T06:07:22.469Z,2.70
2023-06-24T06:09:50.821Z,3.25
2023-06-24T06:12:19.089Z,3.13
2023-06-24T06:14:48.718Z,2.75
2023-06-24T06:17:17.194Z,3.00
2023-06-24T06:19:48.404Z,2.72
2023-06-24T06:22:19.139Z,3.00
2023-06-24T06:24:47.424Z,2.88
2023-06-24T06:27:16.038Z,3.35
2023-06-24T06:29:44.376Z,3.38
2023-06-24T06:32:14.052Z,3.08
2023-06-24T06:34:43.400Z,2.92
2023-06-24T06:37:11.784Z,3.15
2023-06-24T06:39:40.094Z,2.80
2023-06-24T06:42:08.992Z,2.80
2023-06-24T06:44:37.342Z,3.17
2023-06-24T06:47:06.056Z,3.25
2023-06-24T06:49:35.841Z,3.33
2023-06-24T06:52:04.312Z,2.90
2023-06-24T06:54:32.625Z,3.17
2023-06-24T06:57:03.230Z,3.20
2023-06-24T06:59:31.484Z,3.50
2023-06-24T07:01:59.894Z,3.30
2023-06-24T07:04:28.270Z,3.13
2023-06-24T07:06:57.987Z,3.13
2023-06-24T07:09:26.331Z,3.00
2023-06-24T07:11:54.602Z,3.25
2023-06-24T07:14:22.890Z,3.20
2023-06-24T07:16:51.238Z,2.80
2023-06-24T07:19:20.152Z,3.15
2023-06-24T07:21:48.411Z,3.00
2023-06-24T07:24:18.218Z,2.85
2023-06-24T07:26:46.775Z,3.42
2023-06-24T07:29:15.112Z,3.45
2023-06-24T07:31:44.037Z,3.63
2023-06-24T07:34:12.366Z,2.83
2023-06-24T07:36:40.919Z,2.88
2023-06-24T07:39:09.272Z,2.97
2023-06-24T07:41:39.106Z,2.58
2023-06-24T07:44:07.474Z,2.85
2023-06-24T07:46:35.899Z,2.78
2023-06-24T07:49:04.224Z,3.03
2023-06-24T07:51:32.587Z,2.70
2023-06-24T07:54:00.923Z,2.85
2023-06-24T07:56:29.256Z,2.92
2023-06-24T07:58:59.046Z,2.95
2023-06-24T08:01:28.898Z,2.92
2023-06-24T08:03:57.146Z,2.70
2023-06-24T08:06:25.520Z,2.80
2023-06-24T08:08:54.104Z,3.30
2023-06-24T08:11:22.820Z,3.03
2023-06-24T08:13:51.081Z,2.90
2023-06-24T08:16:21.581Z,3.10
2023-06-24T08:18:50.264Z,3.13
2023-06-24T08:21:18.627Z,2.97
2023-06-24T08:23:47.538Z,3.28
2023-06-24T08:26:17.929Z,2.60
2023-06-24T08:28:47.664Z,3.10
2023-06-24T08:31:16.480Z,3.70
2023-06-24T08:33:47.455Z,3.55
2023-06-24T08:36:16.403Z,3.42
2023-06-24T08:38:44.667Z,3.67
2023-06-24T08:41:12.982Z,3.50
2023-06-24T08:43:41.738Z,2.90
2023-06-24T08:46:10.608Z,3.55
2023-06-24T08:48:44.683Z,3.30
2023-06-24T08:51:20.260Z,3.33
2023-06-24T08:53:50.544Z,3.55
2023-06-24T08:56:19.265Z,2.92
2023-06-24T08:58:47.629Z,3.15
2023-06-24T09:01:16.211Z,3.13
2023-06-24T09:03:44.698Z,3.50
2023-06-24T09:06:14.438Z,3.58
2023-06-24T09:08:42.802Z,3.50
2023-06-24T09:11:11.532Z,3.30
2023-06-24T09:13:39.888Z,3.58
2023-06-24T09:16:16.135Z,3.28
2023-06-24T09:18:49.419Z,3.28
2023-06-24T09:21:24.946Z,3.60
2023-06-24T09:23:56.742Z,3.60
2023-06-24T09:28:53.973Z,3.83
2023-06-24T09:31:24.462Z,4.07
2023-06-24T09:33:53.024Z,3.22
2023-06-24T09:36:22.796Z,3.85
2023-06-24T09:38:51.179Z,3.58
2023-06-24T09:41:19.832Z,3.38
2023-06-24T09:43:48.628Z,3.67
2023-06-24T09:46:18.121Z,3.90
2023-06-24T09:48:49.530Z,3.90
2023-06-24T09:51:19.971Z,4.00
2023-06-24T09:53:49.921Z,3.85
2023-06-24T09:56:19.444Z,3.38
2023-06-24T09:58:49.100Z,3.92
2023-06-24T10:01:18.914Z,3.80
2023-06-24T10:03:47.599Z,3.72
2023-06-24T10:06:16.150Z,4.00
2023-06-24T10:08:44.928Z,4.13
2023-06-24T10:11:14.724Z,3.72
2023-06-24T10:13:43.002Z,3.45
2023-06-24T10:16:11.447Z,3.92
2023-06-24T10:18:42.509Z,3.55
2023-06-24T10:21:11.705Z,3.42
2023-06-24T10:23:44.771Z,3.80
2023-06-24T10:26:26.190Z,3.90
2023-06-24T10:29:15.544Z,3.95
2023-06-24T10:31:56.561Z,3.38
2023-06-24T10:34:36.536Z,3.50
2023-06-24T10:37:06.374Z,4.15
2023-06-24T10:39:42.449Z,4.00
2023-06-24T10:42:38.617Z,4.15
2023-06-24T10:45:21.345Z,3.80
2023-06-24T10:47:51.545Z,3.75
2023-06-24T10:50:24.996Z,4.53
2023-06-24T10:52:57.040Z,3.90
2023-06-24T10:55:26.913Z,4.05
2023-06-24T10:57:56.822Z,4.40
2023-06-24T11:00:25.184Z,3.88
2023-06-24T11:02:53.886Z,4.20
2023-06-24T11:05:22.248Z,4.18
2023-06-24T11:07:51.428Z,4.43
2023-06-24T11:10:19.817Z,3.95
2023-06-24T11:12:48.694Z,3.95
2023-06-24T11:15:20.270Z,4.15
2023-06-24T11:17:52.700Z,4.75
2023-06-24T11:20:21.104Z,3.85
2023-06-24T11:22:49.450Z,3.83
2023-06-24T11:25:18.867Z,4.25
2023-06-24T11:27:47.771Z,4.10
2023-06-24T11:30:16.612Z,4.03
2023-06-24T11:32:49.066Z,4.03
2023-06-24T11:35:17.921Z,4.50
2023-06-24T11:37:50.692Z,4.20
2023-06-24T11:40:20.575Z,3.90
2023-06-24T11:42:49.592Z,3.70
2023-06-24T11:45:22.980Z,4.00
2023-06-24T11:47:53.900Z,4.47
2023-06-24T11:50:28.485Z,4.28
2023-06-24T11:52:57.499Z,4.10
2023-06-24T11:55:27.421Z,3.90
2023-06-24T11:57:57.587Z,3.95
2023-06-24T12:00:26.693Z,3.80
2023-06-24T12:03:00.624Z,3.45
2023-06-24T12:05:30.433Z,3.70
2023-06-24T12:07:59.858Z,4.13
2023-06-24T12:10:29.820Z,3.90
2023-06-24T12:12:59.490Z,3.70
2023-06-24T12:15:28.137Z,3.70
2023-06-24T12:17:56.932Z,3.65
2023-06-24T12:20:34.344Z,3.80
2023-06-24T12:23:05.942Z,4.05
2023-06-24T12:25:34.964Z,3.80
2023-06-24T12:28:03.748Z,3.97
2023-06-24T12:30:32.305Z,3.63
2023-06-24T12:33:00.983Z,3.90
2023-06-24T12:35:30.995Z,3.80
2023-06-24T12:37:59.886Z,3.67
2023-06-24T12:40:28.450Z,4.05
2023-06-24T12:42:58.707Z,4.13
2023-06-24T12:45:27.263Z,4.20
2023-06-24T12:47:56.116Z,3.95
2023-06-24T12:50:24.768Z,4.20
2023-06-24T12:52:57.568Z,4.22
2023-06-24T12:55:26.193Z,4.28
2023-06-24T12:57:54.947Z,3.88
2023-06-24T13:00:24.057Z,4.20
2023-06-24T13:02:53.221Z,4.07
2023-06-24T13:05:21.927Z,4.03
2023-06-24T13:07:50.539Z,4.30
2023-06-24T13:10:20.640Z,3.72
2023-06-24T13:12:52.156Z,6.72
2023-06-24T13:15:21.688Z,166.90
2023-06-24T13:17:50.495Z,159.95
2023-06-24T13:20:19.205Z,157.25
2023-06-24T13:22:48.093Z,184.85
2023-06-24T13:25:17.027Z,46.58
2023-06-24T13:27:47.796Z,24.60
2023-06-24T13:30:17.730Z,22.45
2023-06-24T13:32:46.600Z,26.92
2023-06-24T13:35:15.306Z,15.60
2023-06-24T13:37:44.602Z,22.73
2023-06-24T13:40:13.689Z,19.58
2023-06-24T13:42:42.416Z,13.48
2023-06-24T13:45:12.928Z,15.77
2023-06-24T13:47:41.557Z,13.02
2023-06-24T13:50:10.697Z,18.63
2023-06-24T13:52:39.254Z,12.75
2023-06-24T13:55:08.208Z,22.05
2023-06-24T13:57:37.013Z,15.35
2023-06-24T14:00:06.041Z,17.65
2023-06-24T14:02:42.457Z,13.98
2023-06-24T14:05:11.401Z,10.43
2023-06-24T14:07:39.783Z,8.63
2023-06-24T14:10:09.095Z,8.82
2023-06-24T14:12:38.682Z,6.07
2023-06-24T14:15:07.926Z,6.55
2023-06-24T14:17:36.252Z,5.90
2023-06-24T14:20:07.190Z,5.43
2023-06-24T14:22:35.662Z,8.27
2023-06-24T14:25:03.900Z,5.97
2023-06-24T14:27:32.206Z,5.25
2023-06-24T14:30:00.559Z,6.78
2023-06-24T14:32:29.012Z,6.72
2023-06-24T14:34:57.603Z,6.07
2023-06-24T14:37:27.314Z,5.40
2023-06-24T14:39:55.961Z,4.32
2023-06-24T14:42:24.181Z,5.20
2023-06-24T14:44:52.669Z,5.18
2023-06-24T14:47:21.051Z,4.80
2023-06-24T14:49:49.438Z,5.35
2023-06-24T14:52:17.768Z,5.28
2023-06-24T14:54:49.628Z,4.47
2023-06-24T14:57:18.156Z,4.10
2023-06-24T14:59:46.433Z,4.40
2023-06-24T15:02:14.754Z,4.47
2023-06-24T15:04:44.173Z,4.55
2023-06-24T15:07:12.886Z,4.30
2023-06-24T15:09:41.363Z,4.35
2023-06-24T15:12:11.607Z,4.03
2023-06-24T15:14:40.039Z,4.40
2023-06-24T15:17:08.332Z,4.15
2023-06-24T15:19:36.663Z,4.63
2023-06-24T15:22:05.531Z,4.40
2023-06-24T15:24:33.818Z,4.20
2023-06-24T15:27:02.393Z,4.40
2023-06-24T15:29:34.254Z,4.40
2023-06-24T15:32:03.695Z,4.13
2023-06-24T15:34:32.230Z,4.43
2023-06-24T15:37:00.458Z,4.47
2023-06-24T15:39:28.852Z,4.10
2023-06-24T15:41:57.223Z,4.45
2023-06-24T15:44:25.598Z,4.20
2023-06-24T15:46:55.411Z,4.13
2023-06-24T15:49:24.078Z,4.32
2023-06-24T15:51:52.608Z,4.05
2023-06-24T15:54:20.995Z,4.60
2023-06-24T15:56:49.328Z,3.95
2023-06-24T15:59:17.652Z,4.43
2023-06-24T16:01:46.036Z,4.07
2023-06-24T16:04:15.838Z,3.72
2023-06-24T16:06:44.756Z,3.58
2023-06-24T16:09:13.802Z,4.07
2023-06-24T16:11:42.084Z,3.88
2023-06-24T16:14:10.486Z,4.03
2023-06-24T16:16:38.757Z,3.78
2023-06-24T16:19:07.100Z,3.85
2023-06-24T16:21:36.919Z,3.72
2023-06-24T16:24:05.411Z,4.18
2023-06-24T16:26:40.254Z,4.18
2023-06-24T16:29:19.973Z,3.97
2023-06-24T16:31:48.408Z,4.10
2023-06-24T16:36:49.602Z,4.03
2023-06-24T16:39:19.723Z,3.83
2023-06-24T16:41:48.144Z,3.83
2023-06-24T16:44:16.558Z,3.60
2023-06-24T16:46:44.880Z,3.67
2023-06-24T16:49:13.320Z,3.78
2023-06-24T16:51:41.831Z,3.70
2023-06-24T16:54:11.883Z,3.60
2023-06-24T16:56:40.661Z,4.00
2023-06-24T16:59:08.890Z,3.53
2023-06-24T17:01:37.290Z,4.03
2023-06-24T17:04:05.816Z,3.72
2023-06-24T17:06:34.317Z,3.85
2023-06-24T17:09:02.877Z,4.22
2023-06-24T17:11:32.601Z,3.60
2023-06-24T17:14:01.005Z,4.05
2023-06-24T17:16:29.285Z,3.75
2023-06-24T17:18:57.753Z,3.90
2023-06-24T17:21:26.137Z,3.90
2023-06-24T17:24:02.028Z,3.78
2023-06-24T17:26:36.100Z,4.40
2023-06-24T17:29:08.628Z,29.73
2023-06-24T17:31:42.056Z,137.38
2023-06-24T17:34:10.513Z,157.60
2023-06-24T17:36:38.872Z,147.18
2023-06-24T17:39:07.104Z,160.45
2023-06-24T17:41:36.992Z,129.80
2023-06-24T17:44:05.339Z,82.00
2023-06-24T17:46:33.945Z,87.25
2023-06-24T17:49:02.292Z,183.27
2023-06-24T17:51:34.132Z,171.85
2023-06-24T17:54:02.500Z,178.93
2023-06-24T17:56:30.872Z,166.65
2023-06-24T17:59:01.042Z,122.60
2023-06-24T18:01:30.527Z,57.15
2023-06-24T18:03:59.481Z,47.30
2023-06-24T18:06:28.260Z,47.40
2023-06-24T18:08:56.651Z,39.33
2023-06-24T18:11:24.932Z,28.70
2023-06-24T18:13:53.316Z,30.98
2023-06-24T18:16:23.084Z,28.05
2023-06-24T18:18:51.501Z,23.50
2023-06-24T18:21:19.879Z,24.83
2023-06-24T18:23:48.203Z,22.63
2023-06-24T18:26:17.376Z,22.08
2023-06-24T18:28:45.920Z,20.08
2023-06-24T18:31:14.310Z,23.80
2023-06-24T18:33:44.037Z,21.33
2023-06-24T18:36:13.746Z,21.85
2023-06-24T18:38:42.238Z,21.60
2023-06-24T18:41:11.093Z,19.25
2023-06-24T18:43:39.495Z,20.67
2023-06-24T18:46:07.868Z,15.95
2023-06-24T18:48:36.267Z,15.95
2023-06-24T18:51:06.100Z,16.60
2023-06-24T18:53:34.422Z,14.52
2023-06-24T18:56:05.258Z,14.98
2023-06-24T18:58:35.298Z,13.63
2023-06-24T19:01:05.809Z,13.82
2023-06-24T19:03:34.165Z,21.67
2023-06-24T19:06:03.293Z,18.77
2023-06-24T19:08:33.177Z,16.33
2023-06-24T19:11:01.556Z,16.63
2023-06-24T19:13:29.805Z,16.20
2023-06-24T19:15:58.212Z,16.13
2023-06-24T19:18:26.480Z,14.02
2023-06-24T19:20:54.834Z,17.80
2023-06-24T19:23:23.058Z,18.67
2023-06-24T19:25:52.885Z,16.50
2023-06-24T19:28:21.098Z,13.90
2023-06-24T19:30:49.647Z,14.27
2023-06-24T19:33:18.228Z,13.48
2023-06-24T19:35:46.485Z,11.85
2023-06-24T19:38:14.811Z,10.95
2023-06-24T19:40:43.116Z,11.38
2023-06-24T19:43:12.769Z,10.43
2023-06-24T19:45:41.076Z,11.57
2023-06-24T19:48:09.518Z,10.80
2023-06-24T19:50:38.070Z,10.00
2023-06-24T19:53:06.555Z,10.52
2023-06-24T19:55:34.855Z,10.93
2023-06-24T19:58:03.207Z,11.60
2023-06-24T20:00:33.077Z,11.00
2023-06-24T20:03:03.752Z,11.15
2023-06-24T20:05:33.027Z,11.95
2023-06-24T20:08:01.977Z,12.40
2023-06-24T20:10:30.209Z,12.27
2023-06-24T20:12:58.612Z,13.73
2023-06-24T20:15:26.915Z,15.48
2023-06-24T20:17:56.639Z,15.82
2023-06-24T20:20:24.981Z,16.20
2023-06-24T20:22:53.264Z,16.38
2023-06-24T20:25:21.867Z,59.55
2023-06-24T20:27:50.508Z,100.38
2023-06-24T20:30:18.888Z,125.53
2023-06-24T20:32:47.154Z,130.00
2023-06-24T20:35:17.567Z,114.90
2023-06-24T20:37:46.103Z,106.53
2023-06-24T20:40:14.645Z,85.75
2023-06-24T20:42:42.886Z,78.10
2023-06-24T20:45:12.345Z,63.03
2023-06-24T20:47:41.461Z,52.00
2023-06-24T20:50:11.909Z,102.57
2023-06-24T20:52:42.346Z,99.32
2023-06-24T20:55:10.645Z,121.47
2023-06-24T20:57:39.318Z,97.03
2023-06-24T21:00:09.111Z,110.68
2023-06-24T21:02:37.564Z,183.68
2023-06-24T21:05:06.180Z,138.82
2023-06-24T21:07:34.518Z,129.95
2023-06-24T21:10:04.526Z,108.35
2023-06-24T21:12:36.535Z,96.15
2023-06-24T21:15:10.608Z,69.63
2023-06-24T21:17:40.517Z,55.47
2023-06-24T21:20:10.205Z,47.38
2023-06-24T21:22:38.525Z,40.80
2023-06-24T21:25:09.409Z,36.50
2023-06-24T21:27:37.700Z,32.70
2023-06-24T21:30:07.184Z,22.88
2023-06-24T21:32:35.492Z,25.63
2023-06-24T21:35:04.200Z,21.17
2023-06-24T21:37:32.425Z,19.90
2023-06-24T21:40:02.006Z,18.70
2023-06-24T21:42:31.642Z,14.18
2023-06-24T21:44:59.962Z,20.63
2023-06-24T21:47:28.366Z,15.75
2023-06-24T21:49:56.787Z,13.23
2023-06-24T21:52:25.225Z,13.25
2023-06-24T21:54:53.971Z,11.10
2023-06-24T21:57:22.236Z,10.50
2023-06-24T21:59:51.952Z,9.82
2023-06-24T22:02:21.115Z,10.20
2023-06-24T22:04:49.492Z,11.45
2023-06-24T22:07:18.248Z,11.20
2023-06-24T22:09:46.673Z,10.80
2023-06-24T22:12:15.049Z,10.95
2023-06-24T22:14:44.048Z,10.93
2023-06-24T22:17:14.410Z,11.02
2023-06-24T22:19:42.928Z,10.68
2023-06-24T22:22:11.132Z,10.40
2023-06-24T22:24:40.320Z,11.10
2023-06-24T22:27:08.618Z,10.38
2023-06-24T22:29:36.971Z,9.93
2023-06-24T22:32:06.513Z,10.48
2023-06-24T22:34:36.287Z,10.43
2023-06-24T22:37:04.945Z,10.13
2023-06-24T22:39:33.172Z,9.02
2023-06-24T22:42:01.508Z,8.77
2023-06-24T22:44:29.764Z,9.77
2023-06-24T22:46:58.988Z,9.30
2023-06-24T22:49:29.618Z,9.20
2023-06-24T22:51:59.341Z,10.00
2023-06-24T22:54:27.720Z,10.27
2023-06-24T22:56:55.977Z,9.50
2023-06-24T22:59:24.356Z,9.73
2023-06-24T23:01:52.968Z,9.80
2023-06-24T23:04:21.798Z,9.65
2023-06-24T23:06:50.772Z,9.00
2023-06-24T23:09:21.088Z,9.07
2023-06-24T23:11:52.719Z,8.60
2023-06-24T23:16:51.814Z,8.60
2023-06-24T23:19:20.606Z,8.43
2023-06-24T23:21:49.560Z,8.23
2023-06-24T23:24:22.798Z,8.63
2023-06-24T23:26:52.506Z,8.80
2023-06-24T23:29:23.478Z,8.20
2023-06-24T23:31:52.208Z,8.93
2023-06-24T23:34:21.298Z,8.73
2023-06-24T23:36:50.267Z,8.43
2023-06-24T23:39:20.565Z,9.23
2023-06-24T23:41:49.518Z,8.98
2023-06-24T23:44:18.295Z,8.85
2023-06-24T23:46:46.558Z,9.27
2023-06-24T23:49:14.976Z,9.75
2023-06-24T23:51:43.230Z,9.85
2023-06-24T23:54:11.692Z,9.60
2023-06-24T23:56:41.922Z,9.75
2023-06-24T23:59:10.278Z,10.27
